sensor_id;sensor_type;location;lat;lon;timestamp;P1;durP1;ratioP1;P2;durP2;ratioP2
79330;SDS011;68797;49.782;19.054;2023-05-10T00:01:31;6.10;;;4.15;;
79330;SDS011;68797;49.782;19.054;2023-05-10T00:03:57;8.13;;;4.68;;
79330;SDS011;68797;49.782;19.054;2023-05-10T00:06:24;8.88;;;4.90;;
79330;SDS011;68797;49.782;19.054;2023-05-10T00:08:51;10.15;;;5.05;;
79330;SDS011;68797;49.782;19.054;2023-05-10T00:11:17;7.85;;;4.72;;
79330;SDS011;68797;49.782;19.054;2023-05-10T00:13:44;7.55;;;5.03;;
79330;SDS011;68797;49.782;19.054;2023-05-10T00:16:11;8.32;;;4.28;;
79330;SDS011;68797;49.782;19.054;2023-05-10T00:18:39;8.77;;;4.93;;
79330;SDS011;68797;49.782;19.054;2023-05-10T00:21:06;9.48;;;4.65;;
79330;SDS011;68797;49.782;19.054;2023-05-10T00:23:33;8.60;;;4.47;;
79330;SDS011;68797;49.782;19.054;2023-05-10T00:26:00;5.85;;;3.67;;
79330;SDS011;68797;49.782;19.054;2023-05-10T00:28:27;8.02;;;4.20;;
79330;SDS011;68797;49.782;19.054;2023-05-10T00:30:56;8.90;;;4.22;;
79330;SDS011;68797;49.782;19.054;2023-05-10T00:33:22;6.72;;;4.15;;
79330;SDS011;68797;49.782;19.054;2023-05-10T00:35:50;8.77;;;4.00;;
79330;SDS011;68797;49.782;19.054;2023-05-10T00:38:18;9.23;;;4.72;;
79330;SDS011;68797;49.782;19.054;2023-05-10T00:40:46;9.18;;;4.88;;
79330;SDS011;68797;49.782;19.054;2023-05-10T00:43:21;10.50;;;4.68;;
79330;SDS011;68797;49.782;19.054;2023-05-10T00:45:48;7.80;;;4.30;;
79330;SDS011;68797;49.782;19.054;2023-05-10T00:48:18;8.20;;;4.32;;
79330;SDS011;68797;49.782;19.054;2023-05-10T00:50:47;8.77;;;4.82;;
79330;SDS011;68797;49.782;19.054;2023-05-10T00:53:15;10.43;;;4.30;;
79330;SDS011;68797;49.782;19.054;2023-05-10T00:55:44;7.18;;;3.53;;
79330;SDS011;68797;49.782;19.054;2023-05-10T00:58:11;5.32;;;3.10;;
79330;SDS011;68797;49.782;19.054;2023-05-10T01:00:42;7.32;;;3.75;;
79330;SDS011;68797;49.782;19.054;2023-05-10T01:03:14;5.93;;;3.28;;
79330;SDS011;68797;49.782;19.054;2023-05-10T01:05:41;10.27;;;3.90;;
79330;SDS011;68797;49.782;19.054;2023-05-10T01:08:07;4.90;;;2.90;;
79330;SDS011;68797;49.782;19.054;2023-05-10T01:10:36;10.00;;;3.75;;
79330;SDS011;68797;49.782;19.054;2023-05-10T01:13:02;7.35;;;3.30;;
79330;SDS011;68797;49.782;19.054;2023-05-10T01:15:29;6.72;;;3.42;;
79330;SDS011;68797;49.782;19.054;2023-05-10T01:17:58;5.22;;;3.03;;
79330;SDS011;68797;49.782;19.054;2023-05-10T01:20:27;7.20;;;2.90;;
79330;SDS011;68797;49.782;19.054;2023-05-10T01:26:11;6.20;;;3.40;;
79330;SDS011;68797;49.782;19.054;2023-05-10T01:34:58;5.80;;;3.63;;
79330;SDS011;68797;49.782;19.054;2023-05-10T01:37:31;6.13;;;2.88;;
79330;SDS011;68797;49.782;19.054;2023-05-10T01:40:35;5.80;;;3.08;;
79330;SDS011;68797;49.782;19.054;2023-05-10T01:43:08;6.05;;;3.20;;
79330;SDS011;68797;49.782;19.054;2023-05-10T01:46:08;6.22;;;3.30;;
79330;SDS011;68797;49.782;19.054;2023-05-10T01:48:47;6.20;;;3.10;;
79330;SDS011;68797;49.782;19.054;2023-05-10T01:51:24;6.50;;;3.30;;
79330;SDS011;68797;49.782;19.054;2023-05-10T01:54:13;4.95;;;3.45;;
79330;SDS011;68797;49.782;19.054;2023-05-10T01:56:41;6.28;;;3.35;;
79330;SDS011;68797;49.782;19.054;2023-05-10T01:59:13;5.20;;;3.15;;
79330;SDS011;68797;49.782;19.054;2023-05-10T02:01:42;5.03;;;3.22;;
79330;SDS011;68797;49.782;19.054;2023-05-10T02:04:11;5.63;;;3.33;;
79330;SDS011;68797;49.782;19.054;2023-05-10T02:06:46;7.22;;;3.67;;
79330;SDS011;68797;49.782;19.054;2023-05-10T02:09:14;5.25;;;3.05;;
79330;SDS011;68797;49.782;19.054;2023-05-10T02:11:44;7.40;;;3.40;;
79330;SDS011;68797;49.782;19.054;2023-05-10T02:14:16;5.22;;;3.47;;
79330;SDS011;68797;49.782;19.054;2023-05-10T02:16:45;5.38;;;2.95;;
79330;SDS011;68797;49.782;19.054;2023-05-10T02:19:12;5.88;;;3.28;;
79330;SDS011;68797;49.782;19.054;2023-05-10T02:21:40;5.82;;;3.70;;
79330;SDS011;68797;49.782;19.054;2023-05-10T02:24:10;4.22;;;3.08;;
79330;SDS011;68797;49.782;19.054;2023-05-10T02:26:38;5.85;;;3.10;;
79330;SDS011;68797;49.782;19.054;2023-05-10T02:29:09;4.93;;;3.00;;
79330;SDS011;68797;49.782;19.054;2023-05-10T02:31:41;8.85;;;3.63;;
79330;SDS011;68797;49.782;19.054;2023-05-10T02:34:10;5.55;;;3.10;;
79330;SDS011;68797;49.782;19.054;2023-05-10T02:36:38;5.07;;;3.00;;
79330;SDS011;68797;49.782;19.054;2023-05-10T02:39:09;5.65;;;3.22;;
79330;SDS011;68797;49.782;19.054;2023-05-10T02:41:40;5.80;;;3.10;;
79330;SDS011;68797;49.782;19.054;2023-05-10T02:44:10;5.25;;;3.22;;
79330;SDS011;68797;49.782;19.054;2023-05-10T02:46:38;4.80;;;2.80;;
79330;SDS011;68797;49.782;19.054;2023-05-10T02:49:05;6.00;;;2.97;;
79330;SDS011;68797;49.782;19.054;2023-05-10T02:51:34;7.82;;;3.38;;
79330;SDS011;68797;49.782;19.054;2023-05-10T02:54:20;8.23;;;3.47;;
79330;SDS011;68797;49.782;19.054;2023-05-10T02:56:52;5.43;;;3.22;;
79330;SDS011;68797;49.782;19.054;2023-05-10T02:59:30;6.97;;;3.10;;
79330;SDS011;68797;49.782;19.054;2023-05-10T03:01:58;5.25;;;3.28;;
79330;SDS011;68797;49.782;19.054;2023-05-10T03:04:29;5.50;;;3.15;;
79330;SDS011;68797;49.782;19.054;2023-05-10T03:06:57;5.75;;;3.20;;
79330;SDS011;68797;49.782;19.054;2023-05-10T03:12:13;5.63;;;3.08;;
79330;SDS011;68797;49.782;19.054;2023-05-10T03:14:57;5.60;;;3.10;;
79330;SDS011;68797;49.782;19.054;2023-05-10T03:20:10;5.97;;;3.17;;
79330;SDS011;68797;49.782;19.054;2023-05-10T03:22:45;4.35;;;2.90;;
79330;SDS011;68797;49.782;19.054;2023-05-10T03:25:17;4.85;;;2.97;;
79330;SDS011;68797;49.782;19.054;2023-05-10T03:27:48;6.18;;;3.10;;
79330;SDS011;68797;49.782;19.054;2023-05-10T03:30:17;4.20;;;2.92;;
79330;SDS011;68797;49.782;19.054;2023-05-10T03:32:45;5.63;;;3.50;;
79330;SDS011;68797;49.782;19.054;2023-05-10T03:35:17;5.95;;;2.95;;
79330;SDS011;68797;49.782;19.054;2023-05-10T03:37:45;5.88;;;2.83;;
79330;SDS011;68797;49.782;19.054;2023-05-10T03:40:12;4.65;;;2.97;;
79330;SDS011;68797;49.782;19.054;2023-05-10T03:42:41;5.95;;;3.13;;
79330;SDS011;68797;49.782;19.054;2023-05-10T03:47:37;6.28;;;2.80;;
79330;SDS011;68797;49.782;19.054;2023-05-10T03:50:05;5.00;;;2.80;;
79330;SDS011;68797;49.782;19.054;2023-05-10T03:52:34;4.68;;;2.70;;
79330;SDS011;68797;49.782;19.054;2023-05-10T03:57:33;7.38;;;3.55;;
79330;SDS011;68797;49.782;19.054;2023-05-10T04:00:07;5.03;;;3.05;;
79330;SDS011;68797;49.782;19.054;2023-05-10T04:02:51;5.97;;;2.92;;
79330;SDS011;68797;49.782;19.054;2023-05-10T04:05:21;4.60;;;3.15;;
79330;SDS011;68797;49.782;19.054;2023-05-10T04:07:51;5.15;;;3.00;;
79330;SDS011;68797;49.782;19.054;2023-05-10T04:10:17;5.60;;;2.95;;
79330;SDS011;68797;49.782;19.054;2023-05-10T04:12:44;4.55;;;2.72;;
79330;SDS011;68797;49.782;19.054;2023-05-10T04:15:11;5.43;;;3.22;;
79330;SDS011;68797;49.782;19.054;2023-05-10T04:17:39;6.55;;;3.42;;
79330;SDS011;68797;49.782;19.054;2023-05-10T04:20:09;5.70;;;2.95;;
79330;SDS011;68797;49.782;19.054;2023-05-10T04:22:37;4.28;;;2.80;;
79330;SDS011;68797;49.782;19.054;2023-05-10T04:25:10;3.67;;;2.60;;
79330;SDS011;68797;49.782;19.054;2023-05-10T04:27:38;6.18;;;3.22;;
79330;SDS011;68797;49.782;19.054;2023-05-10T04:30:05;3.35;;;2.75;;
79330;SDS011;68797;49.782;19.054;2023-05-10T04:32:35;6.28;;;3.35;;
79330;SDS011;68797;49.782;19.054;2023-05-10T04:35:05;6.95;;;3.38;;
79330;SDS011;68797;49.782;19.054;2023-05-10T04:37:33;5.00;;;2.95;;
79330;SDS011;68797;49.782;19.054;2023-05-10T04:40:01;5.78;;;2.83;;
79330;SDS011;68797;49.782;19.054;2023-05-10T04:42:31;9.00;;;3.90;;
79330;SDS011;68797;49.782;19.054;2023-05-10T04:45:14;4.68;;;3.28;;
79330;SDS011;68797;49.782;19.054;2023-05-10T04:47:45;6.05;;;3.75;;
79330;SDS011;68797;49.782;19.054;2023-05-10T04:50:15;5.10;;;3.38;;
79330;SDS011;68797;49.782;19.054;2023-05-10T04:52:44;6.30;;;3.72;;
79330;SDS011;68797;49.782;19.054;2023-05-10T04:55:11;6.55;;;3.30;;
79330;SDS011;68797;49.782;19.054;2023-05-10T04:57:59;10.82;;;3.20;;
79330;SDS011;68797;49.782;19.054;2023-05-10T05:00:37;5.75;;;3.42;;
79330;SDS011;68797;49.782;19.054;2023-05-10T05:03:04;4.95;;;3.08;;
79330;SDS011;68797;49.782;19.054;2023-05-10T05:05:33;5.65;;;3.10;;
79330;SDS011;68797;49.782;19.054;2023-05-10T05:08:01;6.10;;;3.60;;
79330;SDS011;68797;49.782;19.054;2023-05-10T05:10:30;6.32;;;3.40;;
79330;SDS011;68797;49.782;19.054;2023-05-10T05:12:58;6.38;;;3.65;;
79330;SDS011;68797;49.782;19.054;2023-05-10T05:15:26;7.43;;;3.63;;
79330;SDS011;68797;49.782;19.054;2023-05-10T05:20:20;6.35;;;3.20;;
79330;SDS011;68797;49.782;19.054;2023-05-10T05:22:47;5.35;;;3.55;;
79330;SDS011;68797;49.782;19.054;2023-05-10T05:25:16;6.28;;;3.25;;
79330;SDS011;68797;49.782;19.054;2023-05-10T05:27:42;6.18;;;3.67;;
79330;SDS011;68797;49.782;19.054;2023-05-10T05:30:10;4.80;;;3.22;;
79330;SDS011;68797;49.782;19.054;2023-05-10T05:32:37;6.97;;;3.42;;
79330;SDS011;68797;49.782;19.054;2023-05-10T05:35:04;7.97;;;3.25;;
79330;SDS011;68797;49.782;19.054;2023-05-10T05:37:35;6.45;;;3.80;;
79330;SDS011;68797;49.782;19.054;2023-05-10T05:40:02;5.95;;;3.53;;
79330;SDS011;68797;49.782;19.054;2023-05-10T05:42:30;11.48;;;4.43;;
79330;SDS011;68797;49.782;19.054;2023-05-10T05:44:58;5.80;;;3.47;;
79330;SDS011;68797;49.782;19.054;2023-05-10T05:47:25;8.10;;;4.20;;
79330;SDS011;68797;49.782;19.054;2023-05-10T05:49:53;6.15;;;4.00;;
79330;SDS011;68797;49.782;19.054;2023-05-10T05:52:19;7.10;;;3.67;;
79330;SDS011;68797;49.782;19.054;2023-05-10T05:54:47;8.98;;;3.90;;
79330;SDS011;68797;49.782;19.054;2023-05-10T05:57:15;7.90;;;4.15;;
79330;SDS011;68797;49.782;19.054;2023-05-10T05:59:42;5.75;;;3.88;;
79330;SDS011;68797;49.782;19.054;2023-05-10T06:02:11;7.57;;;4.82;;
79330;SDS011;68797;49.782;19.054;2023-05-10T06:04:39;5.72;;;4.05;;
79330;SDS011;68797;49.782;19.054;2023-05-10T06:07:06;7.25;;;4.40;;
79330;SDS011;68797;49.782;19.054;2023-05-10T06:09:35;6.28;;;4.32;;
79330;SDS011;68797;49.782;19.054;2023-05-10T06:12:02;7.88;;;4.00;;
79330;SDS011;68797;49.782;19.054;2023-05-10T06:14:30;7.00;;;4.40;;
79330;SDS011;68797;49.782;19.054;2023-05-10T06:16:59;5.78;;;4.22;;
79330;SDS011;68797;49.782;19.054;2023-05-10T06:19:32;6.22;;;4.60;;
79330;SDS011;68797;49.782;19.054;2023-05-10T06:22:00;7.43;;;4.50;;
79330;SDS011;68797;49.782;19.054;2023-05-10T06:24:27;7.00;;;4.57;;
79330;SDS011;68797;49.782;19.054;2023-05-10T06:26:54;7.47;;;4.35;;
79330;SDS011;68797;49.782;19.054;2023-05-10T06:29:20;6.35;;;3.92;;
79330;SDS011;68797;49.782;19.054;2023-05-10T06:31:47;6.47;;;4.13;;
79330;SDS011;68797;49.782;19.054;2023-05-10T06:34:15;8.43;;;4.50;;
79330;SDS011;68797;49.782;19.054;2023-05-10T06:36:44;8.90;;;4.70;;
79330;SDS011;68797;49.782;19.054;2023-05-10T06:39:11;8.80;;;4.10;;
79330;SDS011;68797;49.782;19.054;2023-05-10T06:41:39;9.10;;;4.93;;
79330;SDS011;68797;49.782;19.054;2023-05-10T06:44:06;6.05;;;3.88;;
79330;SDS011;68797;49.782;19.054;2023-05-10T06:49:02;7.85;;;4.30;;
79330;SDS011;68797;49.782;19.054;2023-05-10T06:51:42;5.47;;;3.97;;
79330;SDS011;68797;49.782;19.054;2023-05-10T06:54:08;6.47;;;3.42;;
79330;SDS011;68797;49.782;19.054;2023-05-10T06:56:35;6.05;;;3.47;;
79330;SDS011;68797;49.782;19.054;2023-05-10T06:59:09;8.23;;;3.70;;
79330;SDS011;68797;49.782;19.054;2023-05-10T07:01:36;5.65;;;3.22;;
79330;SDS011;68797;49.782;19.054;2023-05-10T07:04:03;5.07;;;3.17;;
79330;SDS011;68797;49.782;19.054;2023-05-10T07:06:30;4.35;;;2.95;;
79330;SDS011;68797;49.782;19.054;2023-05-10T07:08:57;3.95;;;3.30;;
79330;SDS011;68797;49.782;19.054;2023-05-10T07:11:27;4.18;;;3.03;;
79330;SDS011;68797;49.782;19.054;2023-05-10T07:13:57;5.15;;;3.05;;
79330;SDS011;68797;49.782;19.054;2023-05-10T07:16:24;8.88;;;3.35;;
79330;SDS011;68797;49.782;19.054;2023-05-10T07:18:51;4.95;;;3.53;;
79330;SDS011;68797;49.782;19.054;2023-05-10T07:21:20;4.30;;;2.85;;
79330;SDS011;68797;49.782;19.054;2023-05-10T07:23:50;4.90;;;3.05;;
79330;SDS011;68797;49.782;19.054;2023-05-10T07:26:19;9.27;;;4.28;;
79330;SDS011;68797;49.782;19.054;2023-05-10T07:28:49;5.22;;;3.17;;
79330;SDS011;68797;49.782;19.054;2023-05-10T07:31:30;3.30;;;2.42;;
79330;SDS011;68797;49.782;19.054;2023-05-10T07:34:00;6.50;;;3.00;;
79330;SDS011;68797;49.782;19.054;2023-05-10T07:36:31;5.28;;;3.08;;
79330;SDS011;68797;49.782;19.054;2023-05-10T07:38:59;5.45;;;3.22;;
79330;SDS011;68797;49.782;19.054;2023-05-10T07:41:26;6.45;;;3.20;;
79330;SDS011;68797;49.782;19.054;2023-05-10T07:43:56;17.00;;;3.17;;
79330;SDS011;68797;49.782;19.054;2023-05-10T07:46:22;4.05;;;2.67;;
79330;SDS011;68797;49.782;19.054;2023-05-10T07:48:49;5.90;;;2.65;;
79330;SDS011;68797;49.782;19.054;2023-05-10T07:51:16;4.68;;;2.85;;
79330;SDS011;68797;49.782;19.054;2023-05-10T07:53:43;6.38;;;3.28;;
79330;SDS011;68797;49.782;19.054;2023-05-10T07:56:19;4.30;;;2.88;;
79330;SDS011;68797;49.782;19.054;2023-05-10T07:58:51;5.47;;;3.10;;
79330;SDS011;68797;49.782;19.054;2023-05-10T08:03:47;7.80;;;3.10;;
79330;SDS011;68797;49.782;19.054;2023-05-10T08:06:24;3.60;;;2.80;;
79330;SDS011;68797;49.782;19.054;2023-05-10T08:08:55;5.30;;;3.03;;
79330;SDS011;68797;49.782;19.054;2023-05-10T08:11:21;5.22;;;2.75;;
79330;SDS011;68797;49.782;19.054;2023-05-10T08:13:51;4.63;;;3.20;;
79330;SDS011;68797;49.782;19.054;2023-05-10T08:16:19;6.22;;;3.05;;
79330;SDS011;68797;49.782;19.054;2023-05-10T08:18:49;5.40;;;3.10;;
79330;SDS011;68797;49.782;19.054;2023-05-10T08:23:44;4.45;;;3.08;;
79330;SDS011;68797;49.782;19.054;2023-05-10T08:26:10;4.13;;;2.90;;
79330;SDS011;68797;49.782;19.054;2023-05-10T08:28:37;5.57;;;3.28;;
79330;SDS011;68797;49.782;19.054;2023-05-10T08:31:04;5.68;;;3.47;;
79330;SDS011;68797;49.782;19.054;2023-05-10T08:33:30;6.57;;;3.28;;
79330;SDS011;68797;49.782;19.054;2023-05-10T08:35:58;11.50;;;4.18;;
79330;SDS011;68797;49.782;19.054;2023-05-10T08:38:26;6.53;;;4.53;;
79330;SDS011;68797;49.782;19.054;2023-05-10T08:40:53;5.38;;;3.00;;
79330;SDS011;68797;49.782;19.054;2023-05-10T08:43:26;4.10;;;3.03;;
79330;SDS011;68797;49.782;19.054;2023-05-10T08:45:59;3.80;;;2.92;;
79330;SDS011;68797;49.782;19.054;2023-05-10T08:48:33;4.15;;;2.70;;
79330;SDS011;68797;49.782;19.054;2023-05-10T08:51:02;4.07;;;3.03;;
79330;SDS011;68797;49.782;19.054;2023-05-10T08:53:32;3.90;;;2.78;;
79330;SDS011;68797;49.782;19.054;2023-05-10T08:56:01;5.45;;;3.15;;
79330;SDS011;68797;49.782;19.054;2023-05-10T08:58:33;6.97;;;3.30;;
79330;SDS011;68797;49.782;19.054;2023-05-10T09:01:07;6.20;;;3.03;;
79330;SDS011;68797;49.782;19.054;2023-05-10T09:03:39;4.60;;;2.60;;
79330;SDS011;68797;49.782;19.054;2023-05-10T09:06:06;4.63;;;3.20;;
79330;SDS011;68797;49.782;19.054;2023-05-10T09:08:48;5.18;;;2.85;;
79330;SDS011;68797;49.782;19.054;2023-05-10T09:11:16;3.45;;;2.70;;
79330;SDS011;68797;49.782;19.054;2023-05-10T09:13:43;5.25;;;2.50;;
79330;SDS011;68797;49.782;19.054;2023-05-10T09:16:10;4.78;;;2.70;;
79330;SDS011;68797;49.782;19.054;2023-05-10T09:18:37;6.85;;;2.53;;
79330;SDS011;68797;49.782;19.054;2023-05-10T09:21:08;3.45;;;2.95;;
79330;SDS011;68797;49.782;19.054;2023-05-10T09:23:42;3.00;;;2.10;;
79330;SDS011;68797;49.782;19.054;2023-05-10T09:26:09;2.83;;;2.30;;
79330;SDS011;68797;49.782;19.054;2023-05-10T09:28:49;3.30;;;2.30;;
79330;SDS011;68797;49.782;19.054;2023-05-10T09:31:17;4.65;;;2.30;;
79330;SDS011;68797;49.782;19.054;2023-05-10T09:33:44;3.55;;;2.53;;
79330;SDS011;68797;49.782;19.054;2023-05-10T09:36:16;2.90;;;2.13;;
79330;SDS011;68797;49.782;19.054;2023-05-10T09:38:49;4.40;;;2.67;;
79330;SDS011;68797;49.782;19.054;2023-05-10T09:41:22;4.25;;;2.15;;
79330;SDS011;68797;49.782;19.054;2023-05-10T09:43:55;3.78;;;2.70;;
79330;SDS011;68797;49.782;19.054;2023-05-10T09:46:23;3.28;;;2.30;;
79330;SDS011;68797;49.782;19.054;2023-05-10T09:48:50;4.30;;;2.50;;
79330;SDS011;68797;49.782;19.054;2023-05-10T09:51:19;3.10;;;2.60;;
79330;SDS011;68797;49.782;19.054;2023-05-10T09:54:08;3.58;;;2.10;;
79330;SDS011;68797;49.782;19.054;2023-05-10T09:56:40;4.28;;;2.35;;
79330;SDS011;68797;49.782;19.054;2023-05-10T09:59:09;2.65;;;2.17;;
79330;SDS011;68797;49.782;19.054;2023-05-10T10:01:38;2.83;;;2.20;;
79330;SDS011;68797;49.782;19.054;2023-05-10T10:04:05;5.20;;;3.08;;
79330;SDS011;68797;49.782;19.054;2023-05-10T10:06:37;2.58;;;2.25;;
79330;SDS011;68797;49.782;19.054;2023-05-10T10:09:07;3.08;;;2.25;;
79330;SDS011;68797;49.782;19.054;2023-05-10T10:11:35;4.28;;;2.40;;
79330;SDS011;68797;49.782;19.054;2023-05-10T10:14:05;3.13;;;2.15;;
79330;SDS011;68797;49.782;19.054;2023-05-10T10:16:32;2.50;;;2.13;;
79330;SDS011;68797;49.782;19.054;2023-05-10T10:18:59;4.00;;;2.53;;
79330;SDS011;68797;49.782;19.054;2023-05-10T10:21:28;2.83;;;2.40;;
79330;SDS011;68797;49.782;19.054;2023-05-10T10:23:55;5.68;;;2.70;;
79330;SDS011;68797;49.782;19.054;2023-05-10T10:26:24;4.18;;;2.60;;
79330;SDS011;68797;49.782;19.054;2023-05-10T10:34:57;3.45;;;2.30;;
79330;SDS011;68797;49.782;19.054;2023-05-10T10:40:23;5.53;;;2.53;;
79330;SDS011;68797;49.782;19.054;2023-05-10T10:42:51;6.13;;;2.15;;
79330;SDS011;68797;49.782;19.054;2023-05-10T10:45:21;3.80;;;2.38;;
79330;SDS011;68797;49.782;19.054;2023-05-10T10:47:49;4.13;;;2.40;;
79330;SDS011;68797;49.782;19.054;2023-05-10T10:50:44;5.45;;;2.75;;
79330;SDS011;68797;49.782;19.054;2023-05-10T10:53:16;3.05;;;2.20;;
79330;SDS011;68797;49.782;19.054;2023-05-10T10:55:46;3.65;;;2.55;;
79330;SDS011;68797;49.782;19.054;2023-05-10T10:58:30;6.15;;;2.42;;
79330;SDS011;68797;49.782;19.054;2023-05-10T11:01:17;3.65;;;2.30;;
79330;SDS011;68797;49.782;19.054;2023-05-10T11:06:32;6.68;;;2.50;;
79330;SDS011;68797;49.782;19.054;2023-05-10T11:09:10;3.92;;;2.00;;
79330;SDS011;68797;49.782;19.054;2023-05-10T11:11:51;3.50;;;2.47;;
79330;SDS011;68797;49.782;19.054;2023-05-10T11:14:25;3.30;;;2.30;;
79330;SDS011;68797;49.782;19.054;2023-05-10T11:16:51;4.65;;;2.47;;
79330;SDS011;68797;49.782;19.054;2023-05-10T11:19:20;2.55;;;2.13;;
79330;SDS011;68797;49.782;19.054;2023-05-10T11:21:50;3.58;;;2.30;;
79330;SDS011;68797;49.782;19.054;2023-05-10T11:24:20;3.85;;;2.30;;
79330;SDS011;68797;49.782;19.054;2023-05-10T11:26:52;3.53;;;2.40;;
79330;SDS011;68797;49.782;19.054;2023-05-10T11:29:20;4.32;;;2.70;;
79330;SDS011;68797;49.782;19.054;2023-05-10T11:31:49;4.00;;;2.30;;
79330;SDS011;68797;49.782;19.054;2023-05-10T11:34:23;2.92;;;2.13;;
79330;SDS011;68797;49.782;19.054;2023-05-10T11:36:51;3.28;;;2.40;;
79330;SDS011;68797;49.782;19.054;2023-05-10T11:39:21;4.22;;;2.40;;
79330;SDS011;68797;49.782;19.054;2023-05-10T11:41:48;3.45;;;2.53;;
79330;SDS011;68797;49.782;19.054;2023-05-10T11:44:16;5.53;;;2.40;;
79330;SDS011;68797;49.782;19.054;2023-05-10T11:46:43;2.97;;;2.50;;
79330;SDS011;68797;49.782;19.054;2023-05-10T11:49:10;3.10;;;2.35;;
79330;SDS011;68797;49.782;19.054;2023-05-10T11:51:41;2.80;;;2.45;;
79330;SDS011;68797;49.782;19.054;2023-05-10T11:54:10;3.13;;;2.35;;
79330;SDS011;68797;49.782;19.054;2023-05-10T11:56:40;2.90;;;2.13;;
79330;SDS011;68797;49.782;19.054;2023-05-10T11:59:08;5.05;;;2.03;;
79330;SDS011;68797;49.782;19.054;2023-05-10T12:01:35;5.45;;;2.80;;
79330;SDS011;68797;49.782;19.054;2023-05-10T12:04:03;3.40;;;2.53;;
79330;SDS011;68797;49.782;19.054;2023-05-10T12:06:31;5.65;;;3.00;;
79330;SDS011;68797;49.782;19.054;2023-05-10T12:09:09;2.85;;;2.28;;
79330;SDS011;68797;49.782;19.054;2023-05-10T12:11:38;3.25;;;2.58;;
79330;SDS011;68797;49.782;19.054;2023-05-10T12:14:07;4.60;;;2.65;;
79330;SDS011;68797;49.782;19.054;2023-05-10T12:16:35;3.13;;;2.42;;
79330;SDS011;68797;49.782;19.054;2023-05-10T12:19:04;5.13;;;2.25;;
79330;SDS011;68797;49.782;19.054;2023-05-10T12:21:31;3.30;;;2.40;;
79330;SDS011;68797;49.782;19.054;2023-05-10T12:24:03;4.90;;;2.38;;
79330;SDS011;68797;49.782;19.054;2023-05-10T12:26:30;5.88;;;2.58;;
79330;SDS011;68797;49.782;19.054;2023-05-10T12:29:16;3.10;;;2.33;;
79330;SDS011;68797;49.782;19.054;2023-05-10T12:31:57;3.95;;;2.70;;
79330;SDS011;68797;49.782;19.054;2023-05-10T12:34:33;3.55;;;2.35;;
79330;SDS011;68797;49.782;19.054;2023-05-10T12:37:04;3.80;;;2.70;;
79330;SDS011;68797;49.782;19.054;2023-05-10T12:39:41;4.32;;;2.50;;
79330;SDS011;68797;49.782;19.054;2023-05-10T12:42:14;5.63;;;2.28;;
79330;SDS011;68797;49.782;19.054;2023-05-10T12:47:08;3.67;;;2.53;;
79330;SDS011;68797;49.782;19.054;2023-05-10T12:49:35;2.95;;;2.25;;
79330;SDS011;68797;49.782;19.054;2023-05-10T12:54:56;3.13;;;2.10;;
79330;SDS011;68797;49.782;19.054;2023-05-10T12:57:22;2.72;;;2.17;;
79330;SDS011;68797;49.782;19.054;2023-05-10T12:59:51;3.05;;;2.17;;
79330;SDS011;68797;49.782;19.054;2023-05-10T13:02:18;3.83;;;2.28;;
79330;SDS011;68797;49.782;19.054;2023-05-10T13:04:47;3.38;;;2.13;;
79330;SDS011;68797;49.782;19.054;2023-05-10T13:07:15;3.45;;;2.40;;
79330;SDS011;68797;49.782;19.054;2023-05-10T13:09:42;3.33;;;2.42;;
79330;SDS011;68797;49.782;19.054;2023-05-10T13:12:10;2.53;;;2.03;;
79330;SDS011;68797;49.782;19.054;2023-05-10T13:14:38;2.03;;;1.83;;
79330;SDS011;68797;49.782;19.054;2023-05-10T13:17:09;2.88;;;1.98;;
79330;SDS011;68797;49.782;19.054;2023-05-10T13:19:46;3.60;;;2.05;;
79330;SDS011;68797;49.782;19.054;2023-05-10T13:22:13;4.57;;;2.38;;
79330;SDS011;68797;49.782;19.054;2023-05-10T13:24:43;3.17;;;2.05;;
79330;SDS011;68797;49.782;19.054;2023-05-10T13:27:10;2.72;;;1.90;;
79330;SDS011;68797;49.782;19.054;2023-05-10T13:29:38;2.95;;;1.90;;
79330;SDS011;68797;49.782;19.054;2023-05-10T13:32:05;3.08;;;2.65;;
79330;SDS011;68797;49.782;19.054;2023-05-10T13:34:35;2.65;;;1.92;;
79330;SDS011;68797;49.782;19.054;2023-05-10T13:37:03;3.33;;;2.00;;
79330;SDS011;68797;49.782;19.054;2023-05-10T13:39:29;3.63;;;1.98;;
79330;SDS011;68797;49.782;19.054;2023-05-10T13:42:00;2.33;;;1.85;;
79330;SDS011;68797;49.782;19.054;2023-05-10T13:44:29;2.78;;;1.90;;
79330;SDS011;68797;49.782;19.054;2023-05-10T13:49:23;3.78;;;2.13;;
79330;SDS011;68797;49.782;19.054;2023-05-10T13:51:50;2.15;;;1.90;;
79330;SDS011;68797;49.782;19.054;2023-05-10T13:54:17;3.20;;;2.00;;
79330;SDS011;68797;49.782;19.054;2023-05-10T13:56:47;4.80;;;2.35;;
79330;SDS011;68797;49.782;19.054;2023-05-10T13:59:16;2.72;;;1.90;;
79330;SDS011;68797;49.782;19.054;2023-05-10T14:01:44;3.17;;;2.08;;
79330;SDS011;68797;49.782;19.054;2023-05-10T14:04:11;2.42;;;1.92;;
79330;SDS011;68797;49.782;19.054;2023-05-10T14:06:38;3.85;;;1.85;;
79330;SDS011;68797;49.782;19.054;2023-05-10T14:09:05;3.33;;;2.08;;
79330;SDS011;68797;49.782;19.054;2023-05-10T14:11:34;2.42;;;2.05;;
79330;SDS011;68797;49.782;19.054;2023-05-10T14:14:00;2.65;;;1.83;;
79330;SDS011;68797;49.782;19.054;2023-05-10T14:16:29;3.40;;;2.10;;
79330;SDS011;68797;49.782;19.054;2023-05-10T14:18:56;3.15;;;2.00;;
79330;SDS011;68797;49.782;19.054;2023-05-10T14:21:22;8.25;;;3.33;;
79330;SDS011;68797;49.782;19.054;2023-05-10T14:23:50;3.17;;;2.30;;
79330;SDS011;68797;49.782;19.054;2023-05-10T14:26:18;6.88;;;3.55;;
79330;SDS011;68797;49.782;19.054;2023-05-10T14:28:45;3.55;;;1.95;;
79330;SDS011;68797;49.782;19.054;2023-05-10T14:31:16;3.72;;;1.98;;
79330;SDS011;68797;49.782;19.054;2023-05-10T14:36:42;2.60;;;1.90;;
79330;SDS011;68797;49.782;19.054;2023-05-10T14:39:09;2.17;;;1.70;;
79330;SDS011;68797;49.782;19.054;2023-05-10T14:41:39;1.98;;;1.77;;
79330;SDS011;68797;49.782;19.054;2023-05-10T14:44:10;2.17;;;1.85;;
79330;SDS011;68797;49.782;19.054;2023-05-10T14:46:39;3.05;;;2.75;;
79330;SDS011;68797;49.782;19.054;2023-05-10T14:49:17;3.97;;;2.28;;
79330;SDS011;68797;49.782;19.054;2023-05-10T14:51:44;2.60;;;2.03;;
79330;SDS011;68797;49.782;19.054;2023-05-10T14:54:21;3.30;;;1.95;;
79330;SDS011;68797;49.782;19.054;2023-05-10T14:56:49;2.22;;;2.00;;
79330;SDS011;68797;49.782;19.054;2023-05-10T14:59:20;3.13;;;1.70;;
79330;SDS011;68797;49.782;19.054;2023-05-10T15:01:47;5.00;;;2.20;;
79330;SDS011;68797;49.782;19.054;2023-05-10T15:04:17;3.22;;;2.13;;
79330;SDS011;68797;49.782;19.054;2023-05-10T15:06:47;4.00;;;2.03;;
79330;SDS011;68797;49.782;19.054;2023-05-10T15:09:16;3.17;;;2.30;;
79330;SDS011;68797;49.782;19.054;2023-05-10T15:11:44;3.38;;;2.30;;
79330;SDS011;68797;49.782;19.054;2023-05-10T15:14:11;3.65;;;2.53;;
79330;SDS011;68797;49.782;19.054;2023-05-10T15:16:38;7.78;;;2.80;;
79330;SDS011;68797;49.782;19.054;2023-05-10T15:19:07;3.53;;;2.53;;
79330;SDS011;68797;49.782;19.054;2023-05-10T15:21:37;4.15;;;2.35;;
79330;SDS011;68797;49.782;19.054;2023-05-10T15:24:05;3.78;;;2.45;;
79330;SDS011;68797;49.782;19.054;2023-05-10T15:26:32;3.30;;;2.17;;
79330;SDS011;68797;49.782;19.054;2023-05-10T15:29:05;4.85;;;2.50;;
79330;SDS011;68797;49.782;19.054;2023-05-10T15:31:32;6.00;;;2.53;;
79330;SDS011;68797;49.782;19.054;2023-05-10T15:34:08;3.88;;;2.58;;
79330;SDS011;68797;49.782;19.054;2023-05-10T15:36:34;4.00;;;2.25;;
79330;SDS011;68797;49.782;19.054;2023-05-10T15:39:03;5.00;;;2.58;;
79330;SDS011;68797;49.782;19.054;2023-05-10T15:41:30;4.03;;;2.55;;